sensor_id;sensor_type;location;lat;lon;timestamp;P1;durP1;ratioP1;P2;durP2;ratioP2
19778;SDS011;10049;59.306;18.090;2023-07-24T00:01:56;1.13;;;1.00;;
19778;SDS011;10049;59.306;18.090;2023-07-24T00:04:25;1.67;;;0.90;;
19778;SDS011;10049;59.306;18.090;2023-07-24T00:06:52;1.92;;;1.00;;
19778;SDS011;10049;59.306;18.090;2023-07-24T00:09:21;1.35;;;1.05;;
19778;SDS011;10049;59.306;18.090;2023-07-24T00:11:49;3.60;;;1.33;;
19778;SDS011;10049;59.306;18.090;2023-07-24T00:14:16;1.58;;;1.10;;
19778;SDS011;10049;59.306;18.090;2023-07-24T00:16:46;3.65;;;1.20;;
19778;SDS011;10049;59.306;18.090;2023-07-24T00:19:13;1.02;;;0.82;;
19778;SDS011;10049;59.306;18.090;2023-07-24T00:21:42;2.92;;;1.08;;
19778;SDS011;10049;59.306;18.090;2023-07-24T00:24:10;1.48;;;1.17;;
19778;SDS011;10049;59.306;18.090;2023-07-24T00:26:37;2.03;;;1.10;;
19778;SDS011;10049;59.306;18.090;2023-07-24T00:29:05;2.22;;;1.20;;
19778;SDS011;10049;59.306;18.090;2023-07-24T00:31:33;1.65;;;1.10;;
19778;SDS011;10049;59.306;18.090;2023-07-24T00:34:00;2.40;;;1.33;;
19778;SDS011;10049;59.306;18.090;2023-07-24T00:36:28;1.35;;;1.20;;
19778;SDS011;10049;59.306;18.090;2023-07-24T00:38:57;2.78;;;1.40;;
19778;SDS011;10049;59.306;18.090;2023-07-24T00:41:24;1.20;;;1.10;;
19778;SDS011;10049;59.306;18.090;2023-07-24T00:43:52;2.17;;;1.15;;
19778;SDS011;10049;59.306;18.090;2023-07-24T00:46:21;1.83;;;1.20;;
19778;SDS011;10049;59.306;18.090;2023-07-24T00:48:49;5.80;;;1.33;;
19778;SDS011;10049;59.306;18.090;2023-07-24T00:51:18;3.92;;;1.40;;
19778;SDS011;10049;59.306;18.090;2023-07-24T00:53:46;4.05;;;1.40;;
19778;SDS011;10049;59.306;18.090;2023-07-24T00:56:18;3.05;;;1.40;;
19778;SDS011;10049;59.306;18.090;2023-07-24T00:58:46;2.30;;;1.60;;
19778;SDS011;10049;59.306;18.090;2023-07-24T01:01:14;3.50;;;1.42;;
19778;SDS011;10049;59.306;18.090;2023-07-24T01:03:44;4.22;;;1.20;;
19778;SDS011;10049;59.306;18.090;2023-07-24T01:06:12;2.25;;;1.42;;
19778;SDS011;10049;59.306;18.090;2023-07-24T01:08:39;2.22;;;1.50;;
19778;SDS011;10049;59.306;18.090;2023-07-24T01:11:09;2.17;;;1.50;;
19778;SDS011;10049;59.306;18.090;2023-07-24T01:13:40;2.05;;;1.30;;
19778;SDS011;10049;59.306;18.090;2023-07-24T01:16:09;2.45;;;1.70;;
19778;SDS011;10049;59.306;18.090;2023-07-24T01:18:40;2.05;;;1.40;;
19778;SDS011;10049;59.306;18.090;2023-07-24T01:21:08;2.58;;;1.40;;
19778;SDS011;10049;59.306;18.090;2023-07-24T01:23:44;3.15;;;1.58;;
19778;SDS011;10049;59.306;18.090;2023-07-24T01:26:15;3.70;;;1.65;;
19778;SDS011;10049;59.306;18.090;2023-07-24T01:28:43;3.53;;;1.30;;
19778;SDS011;10049;59.306;18.090;2023-07-24T01:31:13;5.30;;;1.73;;
19778;SDS011;10049;59.306;18.090;2023-07-24T01:33:41;2.83;;;1.70;;
19778;SDS011;10049;59.306;18.090;2023-07-24T01:36:09;1.92;;;1.50;;
19778;SDS011;10049;59.306;18.090;2023-07-24T01:38:37;2.83;;;1.70;;
19778;SDS011;10049;59.306;18.090;2023-07-24T01:41:10;1.50;;;1.40;;
19778;SDS011;10049;59.306;18.090;2023-07-24T01:43:40;2.75;;;1.50;;
19778;SDS011;10049;59.306;18.090;2023-07-24T01:46:07;4.07;;;1.90;;
19778;SDS011;10049;59.306;18.090;2023-07-24T01:48:35;3.25;;;1.60;;
19778;SDS011;10049;59.306;18.090;2023-07-24T01:51:03;2.08;;;1.50;;
19778;SDS011;10049;59.306;18.090;2023-07-24T01:53:30;2.55;;;1.63;;
19778;SDS011;10049;59.306;18.090;2023-07-24T01:55:58;2.88;;;1.80;;
19778;SDS011;10049;59.306;18.090;2023-07-24T01:58:25;1.88;;;1.58;;
19778;SDS011;10049;59.306;18.090;2023-07-24T02:00:56;2.10;;;1.40;;
19778;SDS011;10049;59.306;18.090;2023-07-24T02:03:25;2.17;;;1.55;;
19778;SDS011;10049;59.306;18.090;2023-07-24T02:05:54;2.72;;;1.67;;
19778;SDS011;10049;59.306;18.090;2023-07-24T02:08:23;4.90;;;1.58;;
19778;SDS011;10049;59.306;18.090;2023-07-24T02:10:52;2.25;;;1.67;;
19778;SDS011;10049;59.306;18.090;2023-07-24T02:13:20;3.22;;;1.83;;
19778;SDS011;10049;59.306;18.090;2023-07-24T02:15:47;3.28;;;1.67;;
19778;SDS011;10049;59.306;18.090;2023-07-24T02:18:23;2.78;;;1.65;;
19778;SDS011;10049;59.306;18.090;2023-07-24T02:20:52;2.80;;;1.63;;
19778;SDS011;10049;59.306;18.090;2023-07-24T02:23:19;3.28;;;1.70;;
19778;SDS011;10049;59.306;18.090;2023-07-24T02:25:50;6.85;;;1.75;;
19778;SDS011;10049;59.306;18.090;2023-07-24T02:28:18;2.53;;;1.50;;
19778;SDS011;10049;59.306;18.090;2023-07-24T02:30:46;5.63;;;1.80;;
19778;SDS011;10049;59.306;18.090;2023-07-24T02:33:13;4.95;;;1.60;;
19778;SDS011;10049;59.306;18.090;2023-07-24T02:35:43;2.08;;;1.40;;
19778;SDS011;10049;59.306;18.090;2023-07-24T02:38:18;2.63;;;1.50;;
19778;SDS011;10049;59.306;18.090;2023-07-24T02:40:50;1.63;;;1.45;;
19778;SDS011;10049;59.306;18.090;2023-07-24T02:43:20;4.25;;;1.50;;
19778;SDS011;10049;59.306;18.090;2023-07-24T02:45:48;1.20;;;1.10;;
19778;SDS011;10049;59.306;18.090;2023-07-24T02:48:15;3.22;;;1.40;;
19778;SDS011;10049;59.306;18.090;2023-07-24T02:50:45;2.75;;;1.52;;
19778;SDS011;10049;59.306;18.090;2023-07-24T02:53:14;1.33;;;1.23;;
19778;SDS011;10049;59.306;18.090;2023-07-24T02:55:45;2.30;;;1.50;;
19778;SDS011;10049;59.306;18.090;2023-07-24T02:58:13;1.77;;;1.30;;
19778;SDS011;10049;59.306;18.090;2023-07-24T03:00:42;1.83;;;1.27;;
19778;SDS011;10049;59.306;18.090;2023-07-24T03:03:10;1.00;;;0.90;;
19778;SDS011;10049;59.306;18.090;2023-07-24T03:05:37;3.20;;;0.93;;
19778;SDS011;10049;59.306;18.090;2023-07-24T03:08:10;2.40;;;0.98;;
19778;SDS011;10049;59.306;18.090;2023-07-24T03:10:42;2.72;;;1.30;;
19778;SDS011;10049;59.306;18.090;2023-07-24T03:13:10;1.02;;;0.93;;
19778;SDS011;10049;59.306;18.090;2023-07-24T03:15:38;1.65;;;1.17;;
19778;SDS011;10049;59.306;18.090;2023-07-24T03:18:05;3.05;;;1.20;;
19778;SDS011;10049;59.306;18.090;2023-07-24T03:20:33;1.20;;;0.98;;
19778;SDS011;10049;59.306;18.090;2023-07-24T03:23:01;1.25;;;0.85;;
19778;SDS011;10049;59.306;18.090;2023-07-24T03:25:30;1.25;;;0.90;;
19778;SDS011;10049;59.306;18.090;2023-07-24T03:28:00;1.38;;;0.90;;
19778;SDS011;10049;59.306;18.090;2023-07-24T03:30:29;2.13;;;1.00;;
19778;SDS011;10049;59.306;18.090;2023-07-24T03:32:57;1.58;;;1.10;;
19778;SDS011;10049;59.306;18.090;2023-07-24T03:35:27;1.23;;;1.00;;
19778;SDS011;10049;59.306;18.090;2023-07-24T03:37:55;1.98;;;1.13;;
19778;SDS011;10049;59.306;18.090;2023-07-24T03:40:23;1.73;;;1.10;;
19778;SDS011;10049;59.306;18.090;2023-07-24T03:42:53;2.15;;;1.30;;
19778;SDS011;10049;59.306;18.090;2023-07-24T03:45:21;2.05;;;1.10;;
19778;SDS011;10049;59.306;18.090;2023-07-24T03:47:49;2.15;;;1.10;;
19778;SDS011;10049;59.306;18.090;2023-07-24T03:50:18;1.45;;;1.00;;
19778;SDS011;10049;59.306;18.090;2023-07-24T03:52:47;1.33;;;1.08;;
19778;SDS011;10049;59.306;18.090;2023-07-24T03:55:15;1.00;;;0.90;;
19778;SDS011;10049;59.306;18.090;2023-07-24T03:57:43;1.20;;;1.05;;
19778;SDS011;10049;59.306;18.090;2023-07-24T04:00:15;1.42;;;1.00;;
19778;SDS011;10049;59.306;18.090;2023-07-24T04:02:44;1.33;;;1.10;;
19778;SDS011;10049;59.306;18.090;2023-07-24T04:05:13;2.45;;;1.30;;
19778;SDS011;10049;59.306;18.090;2023-07-24T04:07:46;1.75;;;1.10;;
19778;SDS011;10049;59.306;18.090;2023-07-24T04:10:14;2.30;;;1.20;;
19778;SDS011;10049;59.306;18.090;2023-07-24T04:12:43;3.30;;;1.27;;
19778;SDS011;10049;59.306;18.090;2023-07-24T04:15:11;1.70;;;1.08;;
19778;SDS011;10049;59.306;18.090;2023-07-24T04:17:41;1.80;;;1.17;;
19778;SDS011;10049;59.306;18.090;2023-07-24T04:20:14;2.47;;;1.42;;
19778;SDS011;10049;59.306;18.090;2023-07-24T04:22:42;2.63;;;1.27;;
19778;SDS011;10049;59.306;18.090;2023-07-24T04:25:12;2.22;;;1.20;;
19778;SDS011;10049;59.306;18.090;2023-07-24T04:27:41;1.45;;;1.13;;
19778;SDS011;10049;59.306;18.090;2023-07-24T04:30:09;1.75;;;1.40;;
19778;SDS011;10049;59.306;18.090;2023-07-24T04:32:37;1.88;;;1.10;;
19778;SDS011;10049;59.306;18.090;2023-07-24T04:35:14;1.48;;;1.08;;
19778;SDS011;10049;59.306;18.090;2023-07-24T04:37:43;1.42;;;1.10;;
19778;SDS011;10049;59.306;18.090;2023-07-24T04:40:11;3.25;;;1.20;;
19778;SDS011;10049;59.306;18.090;2023-07-24T04:42:40;2.03;;;1.15;;
19778;SDS011;10049;59.306;18.090;2023-07-24T04:45:21;1.75;;;1.25;;
19778;SDS011;10049;59.306;18.090;2023-07-24T04:47:50;1.10;;;1.00;;
19778;SDS011;10049;59.306;18.090;2023-07-24T04:50:27;1.48;;;1.08;;
19778;SDS011;10049;59.306;18.090;2023-07-24T04:52:56;2.22;;;1.08;;
19778;SDS011;10049;59.306;18.090;2023-07-24T04:55:23;1.95;;;1.05;;
19778;SDS011;10049;59.306;18.090;2023-07-24T04:57:55;1.60;;;1.20;;
19778;SDS011;10049;59.306;18.090;2023-07-24T05:00:25;1.10;;;1.00;;
19778;SDS011;10049;59.306;18.090;2023-07-24T05:02:53;2.55;;;1.20;;
19778;SDS011;10049;59.306;18.090;2023-07-24T05:05:21;1.35;;;1.20;;
19778;SDS011;10049;59.306;18.090;2023-07-24T05:07:50;1.33;;;1.17;;
19778;SDS011;10049;59.306;18.090;2023-07-24T05:10:18;1.45;;;1.10;;
19778;SDS011;10049;59.306;18.090;2023-07-24T05:12:46;1.52;;;1.15;;
19778;SDS011;10049;59.306;18.090;2023-07-24T05:15:14;1.48;;;1.02;;
19778;SDS011;10049;59.306;18.090;2023-07-24T05:17:42;1.33;;;1.00;;
19778;SDS011;10049;59.306;18.090;2023-07-24T05:20:11;1.15;;;1.00;;
19778;SDS011;10049;59.306;18.090;2023-07-24T05:22:39;1.75;;;0.90;;
19778;SDS011;10049;59.306;18.090;2023-07-24T05:25:09;1.38;;;0.85;;
19778;SDS011;10049;59.306;18.090;2023-07-24T05:27:37;0.93;;;0.80;;
19778;SDS011;10049;59.306;18.090;2023-07-24T05:30:05;1.65;;;1.05;;
19778;SDS011;10049;59.306;18.090;2023-07-24T05:32:33;1.85;;;1.13;;
19778;SDS011;10049;59.306;18.090;2023-07-24T05:35:01;1.58;;;0.80;;
19778;SDS011;10049;59.306;18.090;2023-07-24T05:37:28;1.92;;;0.93;;
19778;SDS011;10049;59.306;18.090;2023-07-24T05:39:56;1.58;;;0.90;;
19778;SDS011;10049;59.306;18.090;2023-07-24T05:42:33;1.00;;;0.80;;
19778;SDS011;10049;59.306;18.090;2023-07-24T05:45:07;1.60;;;0.90;;
19778;SDS011;10049;59.306;18.090;2023-07-24T05:47:39;1.45;;;1.00;;
19778;SDS011;10049;59.306;18.090;2023-07-24T05:50:09;0.85;;;0.80;;
19778;SDS011;10049;59.306;18.090;2023-07-24T05:52:39;2.00;;;1.05;;
19778;SDS011;10049;59.306;18.090;2023-07-24T05:55:08;0.70;;;0.70;;
19778;SDS011;10049;59.306;18.090;2023-07-24T05:57:40;1.02;;;0.82;;
19778;SDS011;10049;59.306;18.090;2023-07-24T06:00:11;3.45;;;1.35;;
19778;SDS011;10049;59.306;18.090;2023-07-24T06:02:39;0.88;;;0.80;;
19778;SDS011;10049;59.306;18.090;2023-07-24T06:05:07;1.40;;;0.90;;
19778;SDS011;10049;59.306;18.090;2023-07-24T06:07:39;2.88;;;0.88;;
19778;SDS011;10049;59.306;18.090;2023-07-24T06:10:10;0.77;;;0.60;;
19778;SDS011;10049;59.306;18.090;2023-07-24T06:12:54;2.05;;;0.88;;
19778;SDS011;10049;59.306;18.090;2023-07-24T06:15:21;1.08;;;0.70;;
19778;SDS011;10049;59.306;18.090;2023-07-24T06:17:49;1.95;;;0.63;;
19778;SDS011;10049;59.306;18.090;2023-07-24T06:20:18;1.92;;;0.60;;
19778;SDS011;10049;59.306;18.090;2023-07-24T06:22:46;0.68;;;0.57;;
19778;SDS011;10049;59.306;18.090;2023-07-24T06:25:14;2.05;;;0.70;;
19778;SDS011;10049;59.306;18.090;2023-07-24T06:27:51;1.27;;;0.60;;
19778;SDS011;10049;59.306;18.090;2023-07-24T06:30:22;0.70;;;0.50;;
19778;SDS011;10049;59.306;18.090;2023-07-24T06:32:52;1.15;;;0.60;;
19778;SDS011;10049;59.306;18.090;2023-07-24T06:35:25;1.23;;;0.57;;
19778;SDS011;10049;59.306;18.090;2023-07-24T06:38:01;1.67;;;0.60;;
19778;SDS011;10049;59.306;18.090;2023-07-24T06:40:34;1.17;;;0.52;;
19778;SDS011;10049;59.306;18.090;2023-07-24T06:43:07;0.60;;;0.60;;
19778;SDS011;10049;59.306;18.090;2023-07-24T06:45:43;0.55;;;0.50;;
19778;SDS011;10049;59.306;18.090;2023-07-24T06:48:12;0.38;;;0.38;;
19778;SDS011;10049;59.306;18.090;2023-07-24T06:50:39;0.57;;;0.40;;
19778;SDS011;10049;59.306;18.090;2023-07-24T06:53:14;0.47;;;0.40;;
19778;SDS011;10049;59.306;18.090;2023-07-24T06:55:42;0.50;;;0.40;;
19778;SDS011;10049;59.306;18.090;2023-07-24T06:58:14;0.55;;;0.50;;
19778;SDS011;10049;59.306;18.090;2023-07-24T07:00:41;1.85;;;0.47;;
19778;SDS011;10049;59.306;18.090;2023-07-24T07:03:13;1.45;;;0.80;;
19778;SDS011;10049;59.306;18.090;2023-07-24T07:05:41;1.85;;;0.60;;
19778;SDS011;10049;59.306;18.090;2023-07-24T07:08:10;4.72;;;0.73;;
19778;SDS011;10049;59.306;18.090;2023-07-24T07:10:39;1.10;;;0.40;;
19778;SDS011;10049;59.306;18.090;2023-07-24T07:13:14;2.05;;;0.40;;
19778;SDS011;10049;59.306;18.090;2023-07-24T07:15:43;0.82;;;0.50;;
19778;SDS011;10049;59.306;18.090;2023-07-24T07:18:10;0.85;;;0.40;;
19778;SDS011;10049;59.306;18.090;2023-07-24T07:20:44;0.65;;;0.40;;
19778;SDS011;10049;59.306;18.090;2023-07-24T07:23:11;0.82;;;0.55;;
19778;SDS011;10049;59.306;18.090;2023-07-24T07:25:39;1.30;;;0.60;;
19778;SDS011;10049;59.306;18.090;2023-07-24T07:28:08;34.40;;;4.55;;
19778;SDS011;10049;59.306;18.090;2023-07-24T07:30:38;68.72;;;7.57;;
19778;SDS011;10049;59.306;18.090;2023-07-24T07:33:19;11.02;;;1.80;;
19778;SDS011;10049;59.306;18.090;2023-07-24T07:35:47;0.50;;;0.50;;
19778;SDS011;10049;59.306;18.090;2023-07-24T07:38:15;19.95;;;3.00;;
19778;SDS011;10049;59.306;18.090;2023-07-24T07:40:44;9.88;;;1.88;;
19778;SDS011;10049;59.306;18.090;2023-07-24T07:43:12;10.95;;;0.82;;
19778;SDS011;10049;59.306;18.090;2023-07-24T07:45:42;0.80;;;0.50;;
19778;SDS011;10049;59.306;18.090;2023-07-24T07:48:17;2.72;;;0.45;;
19778;SDS011;10049;59.306;18.090;2023-07-24T07:50:45;2.42;;;0.30;;
19778;SDS011;10049;59.306;18.090;2023-07-24T07:53:17;4.82;;;0.82;;
19778;SDS011;10049;59.306;18.090;2023-07-24T07:55:44;0.98;;;0.47;;
19778;SDS011;10049;59.306;18.090;2023-07-24T07:58:12;0.30;;;0.30;;
19778;SDS011;10049;59.306;18.090;2023-07-24T08:00:43;1.77;;;0.40;;
19778;SDS011;10049;59.306;18.090;2023-07-24T08:03:10;0.40;;;0.40;;
19778;SDS011;10049;59.306;18.090;2023-07-24T08:05:39;0.30;;;0.30;;
19778;SDS011;10049;59.306;18.090;2023-07-24T08:08:06;0.60;;;0.38;;
19778;SDS011;10049;59.306;18.090;2023-07-24T08:10:36;0.90;;;0.50;;
19778;SDS011;10049;59.306;18.090;2023-07-24T08:13:05;0.40;;;0.30;;
19778;SDS011;10049;59.306;18.090;2023-07-24T08:15:36;1.92;;;0.30;;
19778;SDS011;10049;59.306;18.090;2023-07-24T08:18:06;0.55;;;0.30;;
19778;SDS011;10049;59.306;18.090;2023-07-24T08:20:34;0.77;;;0.40;;
19778;SDS011;10049;59.306;18.090;2023-07-24T08:23:06;0.65;;;0.30;;
19778;SDS011;10049;59.306;18.090;2023-07-24T08:25:34;1.02;;;0.43;;
19778;SDS011;10049;59.306;18.090;2023-07-24T08:28:04;0.57;;;0.50;;
19778;SDS011;10049;59.306;18.090;2023-07-24T08:30:34;1.13;;;0.35;;
19778;SDS011;10049;59.306;18.090;2023-07-24T08:33:02;0.73;;;0.43;;
19778;SDS011;10049;59.306;18.090;2023-07-24T08:35:32;0.20;;;0.20;;
19778;SDS011;10049;59.306;18.090;2023-07-24T08:38:00;0.30;;;0.30;;
19778;SDS011;10049;59.306;18.090;2023-07-24T08:40:28;0.50;;;0.30;;
19778;SDS011;10049;59.306;18.090;2023-07-24T08:42:56;0.22;;;0.22;;
19778;SDS011;10049;59.306;18.090;2023-07-24T08:45:34;0.40;;;0.40;;
19778;SDS011;10049;59.306;18.090;2023-07-24T08:48:09;0.40;;;0.20;;
19778;SDS011;10049;59.306;18.090;2023-07-24T08:50:39;0.38;;;0.30;;
19778;SDS011;10049;59.306;18.090;2023-07-24T08:53:07;2.08;;;0.30;;
19778;SDS011;10049;59.306;18.090;2023-07-24T08:55:35;0.22;;;0.22;;
19778;SDS011;10049;59.306;18.090;2023-07-24T08:58:17;0.35;;;0.30;;
19778;SDS011;10049;59.306;18.090;2023-07-24T09:00:45;0.30;;;0.30;;
19778;SDS011;10049;59.306;18.090;2023-07-24T09:03:14;0.57;;;0.40;;
19778;SDS011;10049;59.306;18.090;2023-07-24T09:05:49;2.90;;;0.38;;
19778;SDS011;10049;59.306;18.090;2023-07-24T09:08:28;0.32;;;0.32;;
19778;SDS011;10049;59.306;18.090;2023-07-24T09:10:58;0.43;;;0.30;;
19778;SDS011;10049;59.306;18.090;2023-07-24T09:13:27;0.30;;;0.30;;
19778;SDS011;10049;59.306;18.090;2023-07-24T09:15:56;0.52;;;0.28;;
19778;SDS011;10049;59.306;18.090;2023-07-24T09:18:26;1.23;;;0.40;;
19778;SDS011;10049;59.306;18.090;2023-07-24T09:20:57;1.27;;;0.40;;
19778;SDS011;10049;59.306;18.090;2023-07-24T09:23:28;0.93;;;0.30;;
19778;SDS011;10049;59.306;18.090;2023-07-24T09:25:56;4.28;;;0.70;;
19778;SDS011;10049;59.306;18.090;2023-07-24T09:28:26;0.60;;;0.28;;
19778;SDS011;10049;59.306;18.090;2023-07-24T09:30:56;0.75;;;0.28;;
19778;SDS011;10049;59.306;18.090;2023-07-24T09:33:34;2.42;;;0.35;;
19778;SDS011;10049;59.306;18.090;2023-07-24T09:36:07;0.30;;;0.30;;
19778;SDS011;10049;59.306;18.090;2023-07-24T09:38:38;0.65;;;0.30;;
19778;SDS011;10049;59.306;18.090;2023-07-24T09:41:11;0.57;;;0.40;;
19778;SDS011;10049;59.306;18.090;2023-07-24T09:43:41;2.30;;;0.40;;
19778;SDS011;10049;59.306;18.090;2023-07-24T09:46:10;2.65;;;0.50;;
19778;SDS011;10049;59.306;18.090;2023-07-24T09:48:39;0.40;;;0.40;;
19778;SDS011;10049;59.306;18.090;2023-07-24T09:51:09;0.50;;;0.30;;
19778;SDS011;10049;59.306;18.090;2023-07-24T09:53:43;0.40;;;0.30;;
19778;SDS011;10049;59.306;18.090;2023-07-24T09:56:12;2.03;;;0.50;;
19778;SDS011;10049;59.306;18.090;2023-07-24T09:58:41;1.10;;;0.40;;
19778;SDS011;10049;59.306;18.090;2023-07-24T10:01:21;0.20;;;0.20;;
19778;SDS011;10049;59.306;18.090;2023-07-24T10:03:49;0.80;;;0.50;;
19778;SDS011;10049;59.306;18.090;2023-07-24T10:06:19;0.40;;;0.40;;
19778;SDS011;10049;59.306;18.090;2023-07-24T10:08:50;0.95;;;0.50;;
19778;SDS011;10049;59.306;18.090;2023-07-24T10:11:19;0.75;;;0.43;;
19778;SDS011;10049;59.306;18.090;2023-07-24T10:13:54;0.52;;;0.50;;
19778;SDS011;10049;59.306;18.090;2023-07-24T10:16:25;0.40;;;0.40;;
19778;SDS011;10049;59.306;18.090;2023-07-24T10:18:55;1.05;;;0.50;;
19778;SDS011;10049;59.306;18.090;2023-07-24T10:21:28;0.40;;;0.40;;
19778;SDS011;10049;59.306;18.090;2023-07-24T10:23:59;0.68;;;0.50;;
19778;SDS011;10049;59.306;18.090;2023-07-24T10:26:27;0.40;;;0.40;;
19778;SDS011;10049;59.306;18.090;2023-07-24T10:28:57;0.98;;;0.40;;
19778;SDS011;10049;59.306;18.090;2023-07-24T10:31:25;0.75;;;0.50;;
19778;SDS011;10049;59.306;18.090;2023-07-24T10:33:55;0.38;;;0.38;;
19778;SDS011;10049;59.306;18.090;2023-07-24T10:36:23;1.08;;;0.50;;
19778;SDS011;10049;59.306;18.090;2023-07-24T10:38:53;0.68;;;0.40;;
19778;SDS011;10049;59.306;18.090;2023-07-24T10:41:22;1.52;;;0.50;;
19778;SDS011;10049;59.306;18.090;2023-07-24T10:43:52;0.85;;;0.40;;
19778;SDS011;10049;59.306;18.090;2023-07-24T10:46:34;2.58;;;0.40;;
19778;SDS011;10049;59.306;18.090;2023-07-24T10:49:03;0.80;;;0.43;;
19778;SDS011;10049;59.306;18.090;2023-07-24T10:51:30;0.93;;;0.40;;
19778;SDS011;10049;59.306;18.090;2023-07-24T10:54:01;0.50;;;0.50;;
19778;SDS011;10049;59.306;18.090;2023-07-24T10:56:31;0.40;;;0.30;;
19778;SDS011;10049;59.306;18.090;2023-07-24T10:59:03;1.65;;;0.40;;
19778;SDS011;10049;59.306;18.090;2023-07-24T11:01:31;1.40;;;0.43;;
19778;SDS011;10049;59.306;18.090;2023-07-24T11:04:00;0.45;;;0.40;;
19778;SDS011;10049;59.306;18.090;2023-07-24T11:06:28;2.00;;;0.50;;
19778;SDS011;10049;59.306;18.090;2023-07-24T11:08:56;0.63;;;0.38;;
19778;SDS011;10049;59.306;18.090;2023-07-24T11:11:29;0.70;;;0.47;;
19778;SDS011;10049;59.306;18.090;2023-07-24T11:13:56;0.40;;;0.40;;
19778;SDS011;10049;59.306;18.090;2023-07-24T11:16:25;0.93;;;0.40;;
19778;SDS011;10049;59.306;18.090;2023-07-24T11:18:52;1.58;;;0.50;;
19778;SDS011;10049;59.306;18.090;2023-07-24T11:21:20;0.50;;;0.50;;
19778;SDS011;10049;59.306;18.090;2023-07-24T11:23:49;2.85;;;0.50;;
19778;SDS011;10049;59.306;18.090;2023-07-24T11:26:18;0.40;;;0.40;;
19778;SDS011;10049;59.306;18.090;2023-07-24T11:28:47;0.40;;;0.40;;
19778;SDS011;10049;59.306;18.090;2023-07-24T11:31:16;1.13;;;0.50;;
19778;SDS011;10049;59.306;18.090;2023-07-24T11:33:45;0.65;;;0.35;;
19778;SDS011;10049;59.306;18.090;2023-07-24T11:36:14;1.83;;;0.50;;
19778;SDS011;10049;59.306;18.090;2023-07-24T11:38:41;0.40;;;0.40;;
19778;SDS011;10049;59.306;18.090;2023-07-24T11:41:09;1.33;;;0.80;;
19778;SDS011;10049;59.306;18.090;2023-07-24T11:43:44;1.42;;;0.55;;
19778;SDS011;10049;59.306;18.090;2023-07-24T11:46:23;1.98;;;0.40;;
19778;SDS011;10049;59.306;18.090;2023-07-24T11:48:54;0.40;;;0.40;;
19778;SDS011;10049;59.306;18.090;2023-07-24T11:51:22;0.82;;;0.40;;
19778;SDS011;10049;59.306;18.090;2023-07-24T11:53:51;0.50;;;0.35;;
19778;SDS011;10049;59.306;18.090;2023-07-24T11:56:19;0.40;;;0.40;;
19778;SDS011;10049;59.306;18.090;2023-07-24T11:58:48;1.80;;;0.50;;
19778;SDS011;10049;59.306;18.090;2023-07-24T12:01:17;2.28;;;0.45;;
19778;SDS011;10049;59.306;18.090;2023-07-24T12:03:47;0.50;;;0.38;;
19778;SDS011;10049;59.306;18.090;2023-07-24T12:06:15;0.80;;;0.30;;
19778;SDS011;10049;59.306;18.090;2023-07-24T12:08:43;0.40;;;0.40;;
19778;SDS011;10049;59.306;18.090;2023-07-24T12:11:17;0.38;;;0.38;;
19778;SDS011;10049;59.306;18.090;2023-07-24T12:13:45;1.10;;;0.43;;
19778;SDS011;10049;59.306;18.090;2023-07-24T12:16:13;0.30;;;0.30;;
19778;SDS011;10049;59.306;18.090;2023-07-24T12:18:43;0.30;;;0.30;;
19778;SDS011;10049;59.306;18.090;2023-07-24T12:21:12;0.30;;;0.30;;
19778;SDS011;10049;59.306;18.090;2023-07-24T12:23:40;0.20;;;0.20;;
19778;SDS011;10049;59.306;18.090;2023-07-24T12:26:08;1.08;;;0.20;;
19778;SDS011;10049;59.306;18.090;2023-07-24T12:28:35;2.78;;;0.30;;
19778;SDS011;10049;59.306;18.090;2023-07-24T12:31:05;0.40;;;0.22;;
19778;SDS011;10049;59.306;18.090;2023-07-24T12:33:33;0.35;;;0.35;;
19778;SDS011;10049;59.306;18.090;2023-07-24T12:36:03;0.90;;;0.30;;
19778;SDS011;10049;59.306;18.090;2023-07-24T12:38:33;2.08;;;0.30;;
19778;SDS011;10049;59.306;18.090;2023-07-24T12:41:01;0.22;;;0.20;;
19778;SDS011;10049;59.306;18.090;2023-07-24T12:43:29;0.65;;;0.30;;
19778;SDS011;10049;59.306;18.090;2023-07-24T12:45:56;1.95;;;0.45;;
19778;SDS011;10049;59.306;18.090;2023-07-24T12:48:25;0.57;;;0.30;;
19778;SDS011;10049;59.306;18.090;2023-07-24T12:50:53;0.45;;;0.45;;
19778;SDS011;10049;59.306;18.090;2023-07-24T12:53:23;1.02;;;0.32;;
19778;SDS011;10049;59.306;18.090;2023-07-24T12:55:52;0.32;;;0.30;;
19778;SDS011;10049;59.306;18.090;2023-07-24T12:58:20;1.95;;;0.30;;
19778;SDS011;10049;59.306;18.090;2023-07-24T13:00:50;0.73;;;0.30;;
19778;SDS011;10049;59.306;18.090;2023-07-24T13:03:22;0.38;;;0.38;;
19778;SDS011;10049;59.306;18.090;2023-07-24T13:05:51;0.20;;;0.20;;
19778;SDS011;10049;59.306;18.090;2023-07-24T13:08:21;0.30;;;0.30;;
19778;SDS011;10049;59.306;18.090;2023-07-24T13:10:54;0.30;;;0.30;;
19778;SDS011;10049;59.306;18.090;2023-07-24T13:13:24;0.40;;;0.30;;
19778;SDS011;10049;59.306;18.090;2023-07-24T13:15:54;2.63;;;0.30;;
19778;SDS011;10049;59.306;18.090;2023-07-24T13:18:22;0.20;;;0.20;;
19778;SDS011;10049;59.306;18.090;2023-07-24T13:20:55;0.28;;;0.28;;
19778;SDS011;10049;59.306;18.090;2023-07-24T13:23:23;0.30;;;0.30;;
19778;SDS011;10049;59.306;18.090;2023-07-24T13:28:59;0.22;;;0.22;;
19778;SDS011;10049;59.306;18.090;2023-07-24T13:31:29;0.43;;;0.25;;
19778;SDS011;10049;59.306;18.090;2023-07-24T13:33:58;2.50;;;0.38;;
19778;SDS011;10049;59.306;18.090;2023-07-24T13:36:35;0.30;;;0.30;;
19778;SDS011;10049;59.306;18.090;2023-07-24T13:39:04;0.30;;;0.30;;
19778;SDS011;10049;59.306;18.090;2023-07-24T13:41:32;0.40;;;0.40;;
19778;SDS011;10049;59.306;18.090;2023-07-24T13:44:17;0.70;;;0.40;;
19778;SDS011;10049;59.306;18.090;2023-07-24T13:46:51;0.30;;;0.30;;
19778;SDS011;10049;59.306;18.090;2023-07-24T13:49:30;0.38;;;0.30;;
19778;SDS011;10049;59.306;18.090;2023-07-24T13:52:02;0.30;;;0.30;;
19778;SDS011;10049;59.306;18.090;2023-07-24T13:54:30;0.40;;;0.40;;
19778;SDS011;10049;59.306;18.090;2023-07-24T13:56:58;0.73;;;0.40;;
19778;SDS011;10049;59.306;18.090;2023-07-24T13:59:26;0.43;;;0.40;;
19778;SDS011;10049;59.306;18.090;2023-07-24T14:01:54;0.35;;;0.35;;
19778;SDS011;10049;59.306;18.090;2023-07-24T14:04:21;0.20;;;0.20;;
19778;SDS011;10049;59.306;18.090;2023-07-24T14:06:49;0.38;;;0.38;;
19778;SDS011;10049;59.306;18.090;2023-07-24T14:09:16;0.40;;;0.40;;
19778;SDS011;10049;59.306;18.090;2023-07-24T14:11:43;0.30;;;0.30;;
19778;SDS011;10049;59.306;18.090;2023-07-24T14:14:11;0.60;;;0.40;;
19778;SDS011;10049;59.306;18.090;2023-07-24T14:16:40;0.30;;;0.30;;
19778;SDS011;10049;59.306;18.090;2023-07-24T14:19:07;0.32;;;0.32;;
19778;SDS011;10049;59.306;18.090;2023-07-24T14:21:34;0.30;;;0.30;;
19778;SDS011;10049;59.306;18.090;2023-07-24T14:24:02;2.58;;;0.30;;
19778;SDS011;10049;59.306;18.090;2023-07-24T14:26:29;0.40;;;0.40;;
19778;SDS011;10049;59.306;18.090;2023-07-24T14:28:56;0.38;;;0.30;;
19778;SDS011;10049;59.306;18.090;2023-07-24T14:31:24;0.30;;;0.30;;
19778;SDS011;10049;59.306;18.090;2023-07-24T14:33:53;0.40;;;0.40;;
19778;SDS011;10049;59.306;18.090;2023-07-24T14:36:20;0.65;;;0.40;;
19778;SDS011;10049;59.306;18.090;2023-07-24T14:38:48;1.90;;;0.75;;
19778;SDS011;10049;59.306;18.090;2023-07-24T14:41:15;0.55;;;0.40;;
19778;SDS011;10049;59.306;18.090;2023-07-24T14:43:43;1.02;;;0.40;;
19778;SDS011;10049;59.306;18.090;2023-07-24T14:46:10;0.30;;;0.30;;
19778;SDS011;10049;59.306;18.090;2023-07-24T14:48:38;0.98;;;0.35;;
19778;SDS011;10049;59.306;18.090;2023-07-24T14:51:06;0.35;;;0.35;;